createdAt,value
2023-03-06T00:00:58.092Z,86.60
2023-03-06T00:03:27.802Z,86.60
2023-03-06T00:05:59.284Z,86.10
2023-03-06T00:08:29.780Z,85.70
2023-03-06T00:10:57.467Z,85.60
2023-03-06T00:13:25.374Z,85.90
2023-03-06T00:15:52.653Z,86.30
2023-03-06T00:18:19.998Z,85.80
2023-03-06T00:20:47.171Z,85.80
2023-03-06T00:23:16.474Z,85.70
2023-03-06T00:25:46.762Z,86.00
2023-03-06T00:28:15.962Z,85.90
2023-03-06T00:30:47.769Z,85.90
2023-03-06T00:33:14.515Z,85.80
2023-03-06T00:35:42.020Z,86.00
2023-03-06T00:38:12.298Z,85.80
2023-03-06T00:40:39.323Z,85.50
2023-03-06T00:43:06.501Z,85.30
2023-03-06T00:45:35.960Z,85.30
2023-03-06T00:48:03.115Z,85.30
2023-03-06T00:50:32.159Z,85.40
2023-03-06T00:53:01.403Z,85.50
2023-03-06T00:55:29.541Z,85.50
2023-03-06T00:57:56.853Z,85.60
2023-03-06T01:00:24.176Z,85.60
2023-03-06T01:02:53.949Z,85.70
2023-03-06T01:05:22.593Z,85.70
2023-03-06T01:07:50.537Z,85.60
2023-03-06T01:10:20.227Z,85.50
2023-03-06T01:12:49.207Z,85.20
2023-03-06T01:15:18.846Z,85.00
2023-03-06T01:17:49.390Z,84.70
2023-03-06T01:20:18.409Z,84.70
2023-03-06T01:22:49.490Z,84.60
2023-03-06T01:25:16.879Z,84.20
2023-03-06T01:27:48.865Z,84.20
2023-03-06T01:30:15.815Z,84.60
2023-03-06T01:32:43.885Z,84.20
2023-03-06T01:35:17.436Z,84.00
2023-03-06T01:37:47.688Z,84.00
2023-03-06T01:40:15.705Z,83.60
2023-03-06T01:42:46.380Z,83.30
2023-03-06T01:45:23.373Z,83.20
2023-03-06T01:47:51.253Z,83.20
2023-03-06T01:50:21.997Z,83.20
2023-03-06T01:52:53.102Z,83.20
2023-03-06T01:55:28.097Z,83.30
2023-03-06T01:58:01.842Z,83.50
2023-03-06T02:00:32.663Z,83.60
2023-03-06T02:03:18.438Z,83.80
2023-03-06T02:05:45.974Z,83.80
2023-03-06T02:08:17.694Z,83.90
2023-03-06T02:10:58.767Z,84.00
2023-03-06T02:13:26.067Z,83.60
2023-03-06T02:16:00.000Z,83.40
2023-03-06T02:18:28.080Z,83.10
2023-03-06T02:21:00.100Z,82.60
2023-03-06T02:24:03.721Z,82.60
2023-03-06T02:26:33.588Z,82.60
2023-03-06T02:29:01.163Z,82.50
2023-03-06T02:31:31.527Z,82.20
2023-03-06T02:34:20.668Z,82.10
2023-03-06T02:36:55.339Z,82.30
2023-03-06T02:39:27.147Z,82.40
2023-03-06T02:41:59.652Z,82.30
2023-03-06T02:44:30.887Z,82.40
2023-03-06T02:46:59.027Z,82.30
2023-03-06T02:49:29.590Z,82.40
2023-03-06T02:51:58.581Z,82.50
2023-03-06T02:54:26.965Z,82.60
2023-03-06T02:56:55.802Z,82.20
2023-03-06T02:59:25.207Z,82.20
2023-03-06T03:01:56.650Z,82.60
2023-03-06T03:04:25.837Z,83.00
2023-03-06T03:06:54.500Z,83.00
2023-03-06T03:09:23.399Z,82.90
2023-03-06T03:11:54.220Z,82.80
2023-03-06T03:14:25.079Z,82.80
2023-03-06T03:16:54.602Z,83.10
2023-03-06T03:19:21.731Z,83.10
2023-03-06T03:21:50.974Z,83.20
2023-03-06T03:24:21.590Z,83.50
2023-03-06T03:26:49.688Z,83.70
2023-03-06T03:29:19.706Z,84.20
2023-03-06T03:31:48.705Z,84.70
2023-03-06T03:34:19.165Z,85.00
2023-03-06T03:36:49.542Z,86.10
2023-03-06T03:39:19.505Z,87.40
2023-03-06T03:41:50.323Z,87.60
2023-03-06T03:44:25.131Z,88.00
2023-03-06T03:46:53.066Z,89.10
2023-03-06T03:49:22.839Z,89.00
2023-03-06T03:51:53.113Z,89.00
2023-03-06T03:54:21.141Z,89.50
2023-03-06T03:56:49.950Z,90.00
2023-03-06T03:59:29.360Z,90.10
2023-03-06T04:02:22.037Z,90.30
2023-03-06T04:04:58.412Z,90.50
2023-03-06T04:07:27.257Z,90.60
2023-03-06T04:09:54.792Z,90.60
2023-03-06T04:12:25.232Z,90.70
2023-03-06T04:14:58.669Z,90.70
2023-03-06T04:17:30.027Z,90.70
2023-03-06T04:19:58.251Z,90.80
2023-03-06T04:22:26.880Z,90.80
2023-03-06T04:24:54.619Z,90.90
2023-03-06T04:27:24.966Z,90.80
2023-03-06T04:29:54.387Z,90.90
2023-03-06T04:32:25.896Z,91.10
2023-03-06T04:34:53.301Z,91.10
2023-03-06T04:37:24.735Z,91.00
2023-03-06T04:39:52.948Z,91.10
2023-03-06T04:42:21.761Z,91.20
2023-03-06T04:44:51.334Z,91.40
2023-03-06T04:47:24.300Z,91.50
2023-03-06T04:49:53.325Z,91.50
2023-03-06T04:52:20.128Z,91.50
2023-03-06T04:54:49.051Z,91.60
2023-03-06T04:57:18.528Z,91.60
2023-03-06T04:59:53.851Z,91.60
2023-03-06T05:02:21.466Z,91.70
2023-03-06T05:04:49.437Z,91.70
2023-03-06T05:07:16.292Z,91.70
2023-03-06T05:09:46.289Z,91.80
2023-03-06T05:12:15.794Z,91.80
2023-03-06T05:14:48.023Z,91.90
2023-03-06T05:17:18.703Z,92.00
2023-03-06T05:19:47.639Z,92.10
2023-03-06T05:22:14.930Z,92.10
2023-03-06T05:24:42.419Z,92.10
2023-03-06T05:27:09.286Z,92.20
2023-03-06T05:29:36.739Z,92.20
2023-03-06T05:32:03.822Z,92.30
2023-03-06T05:34:33.503Z,92.30
2023-03-06T05:37:02.088Z,92.30
2023-03-06T05:39:30.220Z,92.30
2023-03-06T05:41:57.247Z,92.40
2023-03-06T05:44:34.695Z,92.40
2023-03-06T05:47:02.652Z,92.40
2023-03-06T05:49:38.714Z,92.40
2023-03-06T05:52:09.669Z,92.50
2023-03-06T05:54:38.680Z,92.40
2023-03-06T05:57:06.093Z,92.50
2023-03-06T05:59:33.768Z,92.50
2023-03-06T06:02:01.628Z,92.50
2023-03-06T06:04:33.188Z,92.50
2023-03-06T06:07:01.672Z,92.50
2023-03-06T06:09:29.448Z,92.60
2023-03-06T06:12:05.157Z,92.60
2023-03-06T06:14:36.642Z,92.50
2023-03-06T06:17:04.177Z,92.60
2023-03-06T06:19:36.270Z,92.50
2023-03-06T06:22:05.318Z,92.40
2023-03-06T06:24:32.978Z,92.40
2023-03-06T06:27:03.875Z,92.60
2023-03-06T06:29:35.096Z,92.10
2023-03-06T06:32:05.983Z,91.80
2023-03-06T06:34:36.167Z,91.40
2023-03-06T06:37:07.536Z,91.30
2023-03-06T06:39:34.599Z,91.10
2023-03-06T06:42:28.176Z,90.90
2023-03-06T06:44:52.848Z,90.70
2023-03-06T06:47:23.664Z,90.60
2023-03-06T06:49:55.538Z,90.50
2023-03-06T06:52:29.507Z,90.50
2023-03-06T06:54:58.597Z,90.60
2023-03-06T06:57:32.004Z,90.60
2023-03-06T07:00:06.809Z,90.50
2023-03-06T07:02:38.240Z,90.40
2023-03-06T07:05:09.278Z,90.30
2023-03-06T07:07:38.046Z,90.10
2023-03-06T07:10:08.567Z,89.70
2023-03-06T07:12:39.098Z,89.50
2023-03-06T07:15:17.477Z,89.30
2023-03-06T07:17:44.650Z,89.10
2023-03-06T07:20:13.972Z,88.50
2023-03-06T07:22:51.224Z,88.20
2023-03-06T07:25:27.568Z,88.20
2023-03-06T07:27:58.047Z,87.90
2023-03-06T07:30:27.742Z,87.70
2023-03-06T07:33:00.153Z,87.70
2023-03-06T07:35:29.457Z,87.80
2023-03-06T07:37:59.191Z,86.70
2023-03-06T07:40:29.962Z,86.60
2023-03-06T07:43:13.010Z,86.50
2023-03-06T07:46:02.141Z,86.30
2023-03-06T07:48:29.915Z,86.00
2023-03-06T07:51:01.668Z,85.40
2023-03-06T07:53:29.118Z,85.30
2023-03-06T07:55:56.733Z,85.10
2023-03-06T07:58:25.099Z,85.20
2023-03-06T08:00:54.501Z,85.00
2023-03-06T08:03:21.618Z,84.40
2023-03-06T08:05:53.495Z,84.20
2023-03-06T08:08:20.634Z,84.40
2023-03-06T08:10:49.800Z,84.90
2023-03-06T08:13:19.240Z,85.10
2023-03-06T08:15:49.788Z,85.40
2023-03-06T08:18:17.573Z,85.20
2023-03-06T08:20:44.792Z,84.40
2023-03-06T08:23:13.699Z,84.30
2023-03-06T08:25:40.749Z,83.60
2023-03-06T08:28:10.910Z,82.90
2023-03-06T08:30:38.154Z,82.50
2023-03-06T08:33:04.988Z,82.20
2023-03-06T08:35:31.895Z,80.60
2023-03-06T08:37:58.738Z,80.50
2023-03-06T08:40:27.449Z,81.60
2023-03-06T08:42:54.716Z,81.70
2023-03-06T08:45:21.937Z,81.20
2023-03-06T08:47:48.853Z,80.30
2023-03-06T08:50:16.132Z,79.90
2023-03-06T08:52:42.886Z,79.70
2023-03-06T08:55:09.976Z,78.10
2023-03-06T08:57:37.181Z,79.60
2023-03-06T09:00:09.048Z,79.20
2023-03-06T09:02:38.745Z,79.20
2023-03-06T09:05:07.685Z,78.30
2023-03-06T09:07:36.976Z,78.20
2023-03-06T09:10:04.436Z,77.60
2023-03-06T09:12:40.433Z,78.10
2023-03-06T09:15:17.658Z,76.00
2023-03-06T09:17:44.927Z,75.70
2023-03-06T09:20:13.679Z,75.80
2023-03-06T09:22:42.470Z,75.60
2023-03-06T09:25:11.331Z,75.60
2023-03-06T09:27:38.610Z,75.10
2023-03-06T09:30:07.187Z,74.20
2023-03-06T09:32:34.032Z,72.40
2023-03-06T09:35:03.407Z,73.70
2023-03-06T09:37:30.384Z,73.00
2023-03-06T09:39:58.005Z,72.90
2023-03-06T09:42:25.413Z,72.00
2023-03-06T09:45:01.634Z,71.10
2023-03-06T09:47:41.143Z,70.80
2023-03-06T09:50:28.043Z,69.40
2023-03-06T09:53:16.275Z,67.70
2023-03-06T09:55:50.790Z,68.40
2023-03-06T09:58:23.717Z,68.40
2023-03-06T10:01:13.353Z,68.60
2023-03-06T10:04:01.008Z,70.20
2023-03-06T10:06:34.087Z,70.40
2023-03-06T10:09:13.796Z,71.30
2023-03-06T10:12:04.157Z,72.70
2023-03-06T10:14:39.856Z,70.10
2023-03-06T10:17:11.043Z,70.20
2023-03-06T10:19:41.753Z,68.90
2023-03-06T10:22:21.151Z,68.30
2023-03-06T10:24:54.868Z,69.40
2023-03-06T10:27:31.930Z,69.30
2023-03-06T10:30:14.685Z,68.40
2023-03-06T10:32:48.581Z,68.10
2023-03-06T10:35:22.470Z,67.90
2023-03-06T10:37:58.111Z,68.40
2023-03-06T10:40:35.158Z,67.30
2023-03-06T10:43:12.327Z,65.60
2023-03-06T10:45:53.618Z,63.50
2023-03-06T10:48:29.534Z,63.30
2023-03-06T10:51:22.905Z,62.70
2023-03-06T10:53:52.772Z,63.20
2023-03-06T10:56:34.809Z,62.20
2023-03-06T10:59:10.869Z,60.90
2023-03-06T11:01:38.848Z,58.00
2023-03-06T11:04:18.030Z,57.20
2023-03-06T11:06:46.894Z,56.20
2023-03-06T11:09:26.501Z,55.90
2023-03-06T11:12:16.460Z,54.40
2023-03-06T11:14:44.922Z,53.10
2023-03-06T11:17:32.388Z,51.80
2023-03-06T11:20:23.752Z,51.20
2023-03-06T11:23:05.414Z,49.70
2023-03-06T11:25:41.788Z,49.90
2023-03-06T11:28:27.954Z,49.30
2023-03-06T11:31:04.257Z,48.90
2023-03-06T11:33:50.126Z,47.60
2023-03-06T11:36:30.780Z,47.00
2023-03-06T11:39:03.184Z,46.10
2023-03-06T11:42:09.700Z,46.40
2023-03-06T11:45:21.545Z,44.40
2023-03-06T11:48:23.547Z,44.90
2023-03-06T11:50:57.383Z,45.10
2023-03-06T11:53:38.738Z,44.40
2023-03-06T11:56:56.172Z,45.90
2023-03-06T11:59:55.766Z,45.80
2023-03-06T12:02:46.285Z,46.70
2023-03-06T12:05:31.247Z,48.10
2023-03-06T12:08:10.831Z,47.90
2023-03-06T12:11:12.080Z,48.30
2023-03-06T12:14:16.708Z,49.40
2023-03-06T12:16:53.919Z,50.40
2023-03-06T12:19:56.371Z,50.50
2023-03-06T12:22:37.803Z,51.60
2023-03-06T12:36:33.772Z,54.80
2023-03-06T12:39:19.113Z,54.80
2023-03-06T12:45:50.069Z,55.10
2023-03-06T12:48:47.082Z,55.50
2023-03-06T12:51:33.863Z,54.50
2023-03-06T12:54:02.797Z,54.10
2023-03-06T12:56:33.173Z,52.50
2023-03-06T12:59:02.605Z,51.70
2023-03-06T13:02:08.856Z,52.20
2023-03-06T13:05:19.346Z,52.50
2023-03-06T13:08:31.710Z,51.80
2023-03-06T13:11:33.877Z,51.00
2023-03-06T13:14:01.619Z,49.80
2023-03-06T13:16:41.162Z,49.60
2023-03-06T13:19:28.004Z,51.90
2023-03-06T13:21:57.796Z,51.50
2023-03-06T13:24:37.962Z,51.70
2023-03-06T13:27:11.047Z,51.60
2023-03-06T13:29:41.845Z,52.40
2023-03-06T13:32:20.075Z,52.40
2023-03-06T13:34:51.963Z,50.80
2023-03-06T13:37:43.132Z,50.90
2023-03-06T13:40:10.772Z,50.90
2023-03-06T13:43:20.244Z,49.90
2023-03-06T13:45:50.853Z,49.80
2023-03-06T13:48:43.173Z,49.90
2023-03-06T13:51:25.042Z,50.00
2023-03-06T13:53:58.428Z,51.30
2023-03-06T13:57:03.633Z,51.50
2023-03-06T13:59:54.398Z,50.30
2023-03-06T14:02:51.405Z,48.80
2023-03-06T14:05:19.752Z,47.60
2023-03-06T14:07:49.762Z,47.00
2023-03-06T14:10:28.039Z,46.30
2023-03-06T14:13:23.079Z,45.50
2023-03-06T14:15:52.789Z,46.10
2023-03-06T14:18:40.151Z,46.90
2023-03-06T14:21:13.340Z,46.60
2023-03-06T14:23:45.902Z,46.20
2023-03-06T14:26:18.249Z,46.90
2023-03-06T14:28:55.154Z,46.10
2023-03-06T14:31:37.623Z,45.90
2023-03-06T14:34:07.129Z,45.70
2023-03-06T14:36:45.611Z,45.50
2023-03-06T14:39:40.406Z,44.80
2023-03-06T14:42:25.552Z,45.90
2023-03-06T14:45:08.068Z,46.20
2023-03-06T14:47:36.803Z,46.60
2023-03-06T14:50:36.449Z,46.30
2023-03-06T14:53:09.741Z,45.90
2023-03-06T14:55:37.312Z,45.90
2023-03-06T14:58:26.413Z,46.20
2023-03-06T15:00:55.165Z,46.40
2023-03-06T15:03:33.923Z,47.20
2023-03-06T15:06:01.730Z,47.70
2023-03-06T15:08:33.195Z,48.20
2023-03-06T15:11:08.753Z,49.00
2023-03-06T15:13:36.219Z,49.60
2023-03-06T15:16:16.715Z,49.80
2023-03-06T15:19:02.104Z,50.30
2023-03-06T15:21:40.756Z,51.10
2023-03-06T15:24:33.904Z,51.70
2023-03-06T15:27:09.162Z,52.40
2023-03-06T15:29:39.923Z,53.00
2023-03-06T15:32:30.538Z,53.40
2023-03-06T15:35:35.182Z,54.40
2023-03-06T15:38:24.381Z,54.90
2023-03-06T15:41:02.288Z,55.70
2023-03-06T15:43:36.995Z,56.40
2023-03-06T15:46:06.766Z,57.10
2023-03-06T15:48:36.951Z,57.00
2023-03-06T15:51:04.800Z,57.50
2023-03-06T15:53:32.116Z,58.50
2023-03-06T15:56:03.930Z,59.40
2023-03-06T15:58:33.817Z,60.30
2023-03-06T16:01:01.104Z,60.90
2023-03-06T16:03:28.299Z,61.60
2023-03-06T16:05:55.496Z,62.20
2023-03-06T16:08:22.625Z,63.10
2023-03-06T16:10:52.227Z,63.60
2023-03-06T16:13:26.765Z,64.10
2023-03-06T16:15:54.657Z,64.70
2023-03-06T16:18:21.582Z,67.10
2023-03-06T16:20:49.351Z,69.60
2023-03-06T16:23:18.541Z,71.50
2023-03-06T16:25:53.928Z,73.20
2023-03-06T16:28:21.301Z,75.30
2023-03-06T16:30:48.782Z,75.70
2023-03-06T16:33:16.413Z,77.30
2023-03-06T16:35:46.752Z,77.70
2023-03-06T16:38:15.734Z,78.30
2023-03-06T16:40:44.986Z,78.50
2023-03-06T16:43:13.511Z,78.40
2023-03-06T16:45:42.365Z,78.60
2023-03-06T16:48:15.650Z,78.50
2023-03-06T16:50:43.775Z,79.00
2023-03-06T16:53:11.363Z,79.30
2023-03-06T16:55:41.457Z,79.20
2023-03-06T16:58:08.863Z,79.40
2023-03-06T17:00:35.979Z,79.10
2023-03-06T17:03:03.787Z,78.90
2023-03-06T17:05:36.971Z,79.20
2023-03-06T17:08:04.743Z,79.30
2023-03-06T17:10:31.926Z,79.50
2023-03-06T17:12:59.052Z,79.30
2023-03-06T17:15:26.253Z,78.80
2023-03-06T17:17:55.554Z,78.90
2023-03-06T17:20:24.945Z,78.70
2023-03-06T17:22:56.775Z,78.80
2023-03-06T17:25:26.488Z,79.00
2023-03-06T17:27:55.776Z,79.20
2023-03-06T17:30:22.904Z,79.30
2023-03-06T17:32:56.178Z,79.30
2023-03-06T17:35:25.696Z,78.90
2023-03-06T17:37:52.877Z,78.00
2023-03-06T17:40:25.661Z,77.40
2023-03-06T17:42:55.432Z,76.90
2023-03-06T17:45:26.160Z,77.30
2023-03-06T17:47:54.646Z,77.50
2023-03-06T17:50:22.024Z,77.00
2023-03-06T17:52:51.375Z,76.00
2023-03-06T17:55:20.782Z,75.80
2023-03-06T17:57:47.694Z,75.50
2023-03-06T18:00:15.627Z,75.60
2023-03-06T18:02:45.800Z,76.30
2023-03-06T18:05:12.750Z,76.50
2023-03-06T18:07:40.114Z,76.60
2023-03-06T18:10:10.189Z,75.50
2023-03-06T18:12:37.402Z,75.10
2023-03-06T18:15:05.052Z,75.50
2023-03-06T18:17:32.015Z,75.30
2023-03-06T18:20:01.701Z,74.80
2023-03-06T18:22:30.966Z,74.90
2023-03-06T18:24:58.080Z,74.90
2023-03-06T18:27:25.263Z,75.10
2023-03-06T18:29:57.520Z,75.30
2023-03-06T18:32:24.780Z,75.30
2023-03-06T18:34:52.022Z,75.40
2023-03-06T18:37:19.042Z,75.30
2023-03-06T18:39:45.934Z,74.40
2023-03-06T18:42:15.213Z,74.10
2023-03-06T18:44:48.046Z,74.10
2023-03-06T18:47:17.436Z,74.10
2023-03-06T18:49:46.277Z,74.20
2023-03-06T18:52:13.231Z,74.10
2023-03-06T18:54:43.116Z,74.10
2023-03-06T18:57:11.375Z,73.80
2023-03-06T18:59:40.457Z,73.80
2023-03-06T19:02:07.682Z,73.80
2023-03-06T19:04:37.966Z,73.90
2023-03-06T19:07:06.514Z,74.20
2023-03-06T19:09:34.041Z,74.30
2023-03-06T19:12:04.548Z,74.50
2023-03-06T19:14:31.770Z,74.80
2023-03-06T19:17:02.157Z,74.90
2023-03-06T19:19:31.094Z,75.30
2023-03-06T19:22:02.272Z,75.40
2023-03-06T19:24:29.356Z,75.60
2023-03-06T19:26:56.407Z,75.60
2023-03-06T19:29:23.494Z,76.00
2023-03-06T19:31:52.660Z,76.00
2023-03-06T19:34:21.854Z,76.00
2023-03-06T19:36:56.217Z,76.10
2023-03-06T19:39:25.153Z,76.20
2023-03-06T19:41:52.546Z,76.20
2023-03-06T19:44:19.777Z,76.20
2023-03-06T19:46:49.184Z,76.20
2023-03-06T19:49:22.423Z,76.20
2023-03-06T19:51:49.259Z,76.40
2023-03-06T19:54:16.507Z,76.30
2023-03-06T19:56:43.528Z,76.30
2023-03-06T19:59:10.306Z,76.20
2023-03-06T20:01:38.676Z,76.20
2023-03-06T20:04:06.120Z,76.20
2023-03-06T20:06:36.058Z,75.80
2023-03-06T20:09:06.898Z,75.80
2023-03-06T20:11:34.199Z,75.70
2023-03-06T20:14:03.652Z,75.30
2023-03-06T20:16:31.767Z,75.00
2023-03-06T20:19:02.126Z,74.90
2023-03-06T20:21:31.605Z,75.10
2023-03-06T20:23:59.098Z,75.50
2023-03-06T20:26:28.280Z,76.20
2023-03-06T20:29:00.634Z,75.80
2023-03-06T20:31:30.178Z,75.90
2023-03-06T20:33:58.921Z,75.70
2023-03-06T20:36:36.346Z,75.70
2023-03-06T20:39:07.034Z,75.50
2023-03-06T20:41:34.187Z,75.50
2023-03-06T20:44:03.464Z,75.50
2023-03-06T20:46:34.158Z,75.60
2023-03-06T20:49:04.146Z,75.70
2023-03-06T20:51:39.199Z,75.60
2023-03-06T20:54:12.825Z,75.20
2023-03-06T20:56:41.524Z,75.10
2023-03-06T20:59:11.843Z,75.00
2023-03-06T21:01:41.838Z,74.90
2023-03-06T21:04:10.863Z,75.10
2023-03-06T21:06:40.538Z,74.80
2023-03-06T21:09:08.718Z,74.90
2023-03-06T21:11:35.804Z,74.70
2023-03-06T21:14:03.403Z,74.60
2023-03-06T21:16:31.908Z,74.40
2023-03-06T21:19:01.935Z,74.30
2023-03-06T21:21:34.847Z,74.20
2023-03-06T21:24:02.656Z,74.20
2023-03-06T21:26:33.926Z,74.10
2023-03-06T21:29:02.200Z,74.20
2023-03-06T21:31:30.837Z,74.30
2023-03-06T21:34:04.184Z,74.40
2023-03-06T21:36:32.611Z,74.70
2023-03-06T21:38:59.718Z,74.60
2023-03-06T21:41:30.516Z,74.40
2023-03-06T21:44:00.446Z,74.50
2023-03-06T21:46:31.519Z,74.70
2023-03-06T21:49:02.180Z,74.90
2023-03-06T21:51:29.083Z,74.90
2023-03-06T21:53:59.054Z,75.00
2023-03-06T21:56:28.469Z,75.20
2023-03-06T21:58:59.080Z,75.30
2023-03-06T22:01:29.637Z,75.60
2023-03-06T22:04:00.499Z,75.90
2023-03-06T22:06:33.748Z,76.10
2023-03-06T22:09:01.398Z,76.40
2023-03-06T22:11:31.589Z,76.60
2023-03-06T22:13:58.888Z,76.70
2023-03-06T22:16:26.965Z,77.00
2023-03-06T22:18:53.817Z,77.20
2023-03-06T22:21:22.804Z,77.20
2023-03-06T22:23:57.761Z,77.20
2023-03-06T22:26:28.797Z,77.20
2023-03-06T22:28:55.714Z,77.40
2023-03-06T22:31:28.494Z,77.40
2023-03-06T22:33:57.750Z,77.40
2023-03-06T22:36:28.389Z,77.40
2023-03-06T22:39:00.469Z,77.40
2023-03-06T22:41:30.000Z,77.40
2023-03-06T22:43:59.597Z,77.80
2023-03-06T22:46:27.400Z,77.80
2023-03-06T22:48:58.607Z,78.10
2023-03-06T22:51:29.696Z,78.00
2023-03-06T22:53:59.569Z,78.10
2023-03-06T22:56:26.469Z,78.40
2023-03-06T22:58:53.631Z,78.60
2023-03-06T23:01:26.085Z,78.60
2023-03-06T23:03:58.077Z,78.60
2023-03-06T23:06:28.248Z,78.30
2023-03-06T23:08:58.782Z,78.30
2023-03-06T23:11:28.316Z,78.30
2023-03-06T23:14:15.170Z,78.50
2023-03-06T23:17:03.299Z,78.40
2023-03-06T23:19:51.159Z,78.20
2023-03-06T23:22:39.477Z,78.10
2023-03-06T23:25:25.320Z,78.00
2023-03-06T23:27:52.515Z,77.90
2023-03-06T23:30:19.736Z,78.00
2023-03-06T23:32:46.881Z,78.20
2023-03-06T23:35:14.816Z,78.30
2023-03-06T23:37:41.986Z,78.40
2023-03-06T23:40:10.053Z,78.70
2023-03-06T23:42:39.127Z,79.10
2023-03-06T23:45:07.628Z,79.60
2023-03-06T23:47:35.152Z,80.00
2023-03-06T23:50:02.387Z,80.70
2023-03-06T23:52:29.142Z,80.90
2023-03-06T23:54:57.014Z,80.90
2023-03-06T23:57:24.161Z,81.20
2023-03-06T23:59:51.330Z,81.60
